createdAt,value
2019-06-10T00:02:11.126Z,6.63
2019-06-10T00:04:41.605Z,9.80
2019-06-10T00:07:11.887Z,8.77
2019-06-10T00:09:41.888Z,9.30
2019-06-10T00:12:12.761Z,8.47
2019-06-10T00:14:42.852Z,7.67
2019-06-10T00:17:12.817Z,6.63
2019-06-10T00:19:42.626Z,7.67
2019-06-10T00:22:13.636Z,7.67
2019-06-10T00:24:43.356Z,7.53
2019-06-10T00:27:12.970Z,7.20
2019-06-10T00:29:42.732Z,8.53
2019-06-10T00:32:13.306Z,10.90
2019-06-10T00:34:43.274Z,7.47
2019-06-10T00:37:14.630Z,10.60
2019-06-10T00:39:44.625Z,8.37
2019-06-10T00:42:15.337Z,9.03
2019-06-10T00:44:45.396Z,7.87
2019-06-10T00:47:15.578Z,9.73
2019-06-10T00:49:45.489Z,8.23
2019-06-10T00:52:15.217Z,7.53
2019-06-10T00:54:45.040Z,7.67
2019-06-10T00:57:14.976Z,9.83
2019-06-10T00:59:44.969Z,9.47
2019-06-10T01:02:14.693Z,8.63
2019-06-10T01:04:44.510Z,14.83
2019-06-10T01:07:14.962Z,13.40
2019-06-10T01:09:44.739Z,12.67
2019-06-10T01:12:15.128Z,9.00
2019-06-10T01:14:45.500Z,12.37
2019-06-10T01:17:15.685Z,11.03
2019-06-10T01:19:45.568Z,15.37
2019-06-10T01:22:17.209Z,15.40
2019-06-10T01:24:47.227Z,10.50
2019-06-10T01:27:18.054Z,11.00
2019-06-10T01:29:48.217Z,15.13
2019-06-10T01:32:17.992Z,12.97
2019-06-10T01:34:47.799Z,10.50
2019-06-10T01:37:17.777Z,10.97
2019-06-10T01:39:47.639Z,10.63
2019-06-10T01:42:17.464Z,14.03
2019-06-10T01:44:47.209Z,10.73
2019-06-10T01:47:17.692Z,9.27
2019-06-10T01:49:47.506Z,11.63
2019-06-10T01:52:18.401Z,12.17
2019-06-10T01:54:48.278Z,11.17
2019-06-10T01:57:18.759Z,13.17
2019-06-10T01:59:50.942Z,22.47
2019-06-10T02:02:24.005Z,19.53
2019-06-10T02:04:54.254Z,14.87
2019-06-10T02:07:24.323Z,10.47
2019-06-10T02:09:54.233Z,12.73
2019-06-10T02:12:24.475Z,9.73
2019-06-10T02:14:54.374Z,9.47
2019-06-10T02:17:24.298Z,13.23
2019-06-10T02:19:54.295Z,12.70
2019-06-10T02:22:24.551Z,10.97
2019-06-10T02:24:54.767Z,12.07
2019-06-10T02:27:24.552Z,12.10
2019-06-10T02:29:54.681Z,12.13
2019-06-10T02:32:31.579Z,14.80
2019-06-10T02:35:08.264Z,14.23
2019-06-10T02:37:32.147Z,11.33
2019-06-10T02:39:59.369Z,12.80
2019-06-10T02:42:36.939Z,11.53
2019-06-10T02:45:08.179Z,14.43
2019-06-10T02:47:38.525Z,13.80
2019-06-10T02:50:11.036Z,10.77
2019-06-10T02:52:44.458Z,15.90
2019-06-10T02:55:15.450Z,11.23
2019-06-10T02:57:45.368Z,10.30
2019-06-10T03:00:24.712Z,12.17
2019-06-10T03:02:47.153Z,11.03
2019-06-10T03:05:20.147Z,13.73
2019-06-10T03:07:53.107Z,10.07
2019-06-10T03:10:29.555Z,11.37
2019-06-10T03:12:52.913Z,10.30
2019-06-10T03:15:26.419Z,10.93
2019-06-10T03:17:55.563Z,12.33
2019-06-10T03:20:25.959Z,11.03
2019-06-10T03:22:55.858Z,11.90
2019-06-10T03:25:26.432Z,13.03
2019-06-10T03:27:57.175Z,9.80
2019-06-10T03:30:41.107Z,10.00
2019-06-10T03:32:58.456Z,11.23
2019-06-10T03:35:28.500Z,14.13
2019-06-10T03:37:58.323Z,11.03
2019-06-10T03:40:27.999Z,11.13
2019-06-10T03:42:57.983Z,9.60
2019-06-10T03:45:28.545Z,13.23
2019-06-10T03:47:58.380Z,10.33
2019-06-10T03:50:28.715Z,10.70
2019-06-10T03:53:01.144Z,11.90
2019-06-10T03:55:32.892Z,9.70
2019-06-10T03:58:02.314Z,11.27
2019-06-10T04:00:32.754Z,10.07
2019-06-10T04:03:02.906Z,13.97
2019-06-10T04:05:34.152Z,12.90
2019-06-10T04:08:03.848Z,10.00
2019-06-10T04:10:33.756Z,12.73
2019-06-10T04:13:04.030Z,10.87
2019-06-10T04:15:33.931Z,15.73
2019-06-10T04:18:04.117Z,14.80
2019-06-10T04:20:34.006Z,11.97
2019-06-10T04:23:03.867Z,10.10
2019-06-10T04:25:33.814Z,12.37
2019-06-10T04:28:03.736Z,11.50
2019-06-10T04:30:33.528Z,11.83
2019-06-10T04:33:03.380Z,13.30
2019-06-10T04:35:33.708Z,11.67
2019-06-10T04:38:03.507Z,11.37
2019-06-10T04:40:33.396Z,14.23
2019-06-10T04:43:03.310Z,14.13
2019-06-10T04:45:33.169Z,15.03
2019-06-10T04:48:03.214Z,10.70
2019-06-10T04:50:41.654Z,11.20
2019-06-10T04:53:05.740Z,13.57
2019-06-10T04:55:35.584Z,10.90
2019-06-10T04:58:07.016Z,13.10
2019-06-10T05:00:36.804Z,10.77
2019-06-10T05:03:06.704Z,11.27
2019-06-10T05:05:36.431Z,13.90
2019-06-10T05:08:06.283Z,11.90
2019-06-10T05:10:36.097Z,10.63
2019-06-10T05:13:05.876Z,11.33
2019-06-10T05:15:35.720Z,12.50
2019-06-10T05:18:05.563Z,10.90
2019-06-10T05:20:51.018Z,7.97
2019-06-10T05:23:06.896Z,9.03
2019-06-10T05:25:36.642Z,9.30
2019-06-10T05:28:06.399Z,8.30
2019-06-10T05:30:37.496Z,9.03
2019-06-10T05:33:07.152Z,9.50
2019-06-10T05:35:36.871Z,11.47
2019-06-10T05:38:06.750Z,8.90
2019-06-10T05:40:36.577Z,7.47
2019-06-10T05:43:06.335Z,7.80
2019-06-10T05:45:36.126Z,7.80
2019-06-10T05:48:07.313Z,9.23
2019-06-10T05:50:37.183Z,11.00
2019-06-10T05:53:06.898Z,8.47
2019-06-10T05:55:36.767Z,8.63
2019-06-10T05:58:06.634Z,6.07
2019-06-10T06:00:36.346Z,6.93
2019-06-10T06:03:06.299Z,7.30
2019-06-10T06:05:37.580Z,8.37
2019-06-10T06:08:08.814Z,6.73
2019-06-10T06:10:38.794Z,6.93
2019-06-10T06:13:08.661Z,6.83
2019-06-10T06:15:38.528Z,7.10
2019-06-10T06:18:10.831Z,5.70
2019-06-10T06:20:39.885Z,8.40
2019-06-10T06:23:12.123Z,6.57
2019-06-10T06:25:44.317Z,6.73
2019-06-10T06:28:16.026Z,8.60
2019-06-10T06:30:46.524Z,7.50
2019-06-10T06:33:16.242Z,7.00
2019-06-10T06:35:46.679Z,7.50
2019-06-10T06:38:16.747Z,7.63
2019-06-10T06:40:46.723Z,7.53
2019-06-10T06:43:16.685Z,7.50
2019-06-10T06:45:46.937Z,7.57
2019-06-10T06:48:16.748Z,7.73
2019-06-10T06:51:03.728Z,8.00
2019-06-10T06:53:28.587Z,8.37
2019-06-10T06:55:53.411Z,8.77
2019-06-10T06:58:23.185Z,9.13
2019-06-10T07:01:05.179Z,11.47
2019-06-10T07:03:24.717Z,10.67
2019-06-10T07:05:55.540Z,11.97
2019-06-10T07:08:26.972Z,11.40
2019-06-10T07:11:02.836Z,13.13
2019-06-10T07:13:37.116Z,9.40
2019-06-10T07:16:05.743Z,12.73
2019-06-10T07:18:40.953Z,9.73
2019-06-10T07:21:07.141Z,10.80
2019-06-10T07:23:40.485Z,11.40
2019-06-10T07:26:08.990Z,9.50
2019-06-10T07:28:40.777Z,9.00
2019-06-10T07:31:20.928Z,9.13
2019-06-10T07:33:46.807Z,9.60
2019-06-10T07:36:14.903Z,11.30
2019-06-10T07:38:48.586Z,11.60
2019-06-10T07:41:16.341Z,9.37
2019-06-10T07:43:49.488Z,8.93
2019-06-10T07:46:17.626Z,12.87
2019-06-10T07:48:48.670Z,9.47
2019-06-10T07:51:19.118Z,10.73
2019-06-10T07:53:48.798Z,9.00
2019-06-10T07:56:18.830Z,10.50
2019-06-10T07:58:48.767Z,11.60
2019-06-10T08:01:18.650Z,10.00
2019-06-10T08:03:48.259Z,10.40
2019-06-10T08:06:19.477Z,13.13
2019-06-10T08:08:49.209Z,10.40
2019-06-10T08:11:19.037Z,10.03
2019-06-10T08:13:48.894Z,9.17
2019-06-10T08:16:18.657Z,9.70
2019-06-10T08:19:16.029Z,10.47
2019-06-10T08:21:20.035Z,11.63
2019-06-10T08:23:49.996Z,13.37
2019-06-10T08:26:19.862Z,11.03
2019-06-10T08:28:49.576Z,11.87
2019-06-10T08:31:19.461Z,10.43
2019-06-10T08:33:49.311Z,15.47
2019-06-10T08:36:19.039Z,13.00
2019-06-10T08:38:48.910Z,16.07
2019-06-10T08:41:18.754Z,16.40
2019-06-10T08:43:48.559Z,13.10
2019-06-10T08:46:18.548Z,11.83
2019-06-10T08:48:49.619Z,16.90
2019-06-10T08:51:19.567Z,11.13
2019-06-10T08:53:50.088Z,12.87
2019-06-10T08:56:22.415Z,10.20
2019-06-10T08:58:54.065Z,12.50
2019-06-10T09:01:24.667Z,11.10
2019-06-10T09:03:54.460Z,11.67
2019-06-10T09:06:24.383Z,16.60
2019-06-10T09:08:54.745Z,12.95
2019-06-10T09:11:24.523Z,10.95
2019-06-10T09:13:54.331Z,11.13
2019-06-10T09:16:24.139Z,14.68
2019-06-10T09:18:55.275Z,11.70
2019-06-10T09:21:25.384Z,14.03
2019-06-10T09:23:59.710Z,13.60
2019-06-10T09:26:26.928Z,14.23
2019-06-10T09:28:56.879Z,14.30
2019-06-10T09:31:26.718Z,10.80
2019-06-10T09:33:57.211Z,11.35
2019-06-10T09:36:27.178Z,12.33
2019-06-10T09:38:57.111Z,12.00
2019-06-10T09:41:37.354Z,11.70
2019-06-10T09:43:58.469Z,12.82
2019-06-10T09:46:33.070Z,10.30
2019-06-10T09:49:04.150Z,10.10
2019-06-10T09:51:34.297Z,10.75
2019-06-10T09:54:06.568Z,11.53
2019-06-10T09:56:35.825Z,11.65
2019-06-10T09:59:05.640Z,14.50
2019-06-10T10:01:35.610Z,14.43
2019-06-10T10:04:05.507Z,11.03
2019-06-10T10:06:36.496Z,10.50
2019-06-10T10:09:07.438Z,10.20
2019-06-10T10:11:37.317Z,13.28
2019-06-10T10:14:10.338Z,11.23
2019-06-10T10:16:38.963Z,13.15
2019-06-10T10:19:09.069Z,10.82
2019-06-10T10:21:41.504Z,10.63
2019-06-10T10:24:14.595Z,10.38
2019-06-10T10:26:46.742Z,10.38
2019-06-10T10:29:15.429Z,8.80
2019-06-10T10:31:48.979Z,9.28
2019-06-10T10:34:16.455Z,11.05
2019-06-10T10:36:48.720Z,9.25
2019-06-10T10:39:21.278Z,10.95
2019-06-10T10:41:54.428Z,10.78
2019-06-10T10:44:22.213Z,10.93
2019-06-10T10:46:54.392Z,12.60
2019-06-10T10:49:23.793Z,11.48
2019-06-10T10:51:53.681Z,9.68
2019-06-10T10:54:32.850Z,12.82
2019-06-10T10:56:58.987Z,9.40
2019-06-10T10:59:27.006Z,10.00
2019-06-10T11:01:56.896Z,9.88
2019-06-10T11:04:27.782Z,11.28
2019-06-10T11:07:00.417Z,8.40
2019-06-10T11:09:29.403Z,8.20
2019-06-10T11:12:02.909Z,12.33
2019-06-10T11:14:34.081Z,10.72
2019-06-10T11:17:03.891Z,9.00
2019-06-10T11:19:33.873Z,8.45
2019-06-10T11:22:03.740Z,10.30
2019-06-10T11:24:40.904Z,7.97
2019-06-10T11:27:05.556Z,7.40
2019-06-10T11:29:35.537Z,8.68
2019-06-10T11:32:05.346Z,8.70
2019-06-10T11:34:36.413Z,9.03
2019-06-10T11:37:06.086Z,7.67
2019-06-10T11:39:38.699Z,11.28
2019-06-10T11:42:08.591Z,8.50
2019-06-10T11:44:38.618Z,6.85
2019-06-10T11:47:08.360Z,12.45
2019-06-10T11:49:38.140Z,8.50
2019-06-10T11:52:07.938Z,8.98
2019-06-10T11:54:51.697Z,6.72
2019-06-10T11:57:12.361Z,6.30
2019-06-10T11:59:43.431Z,6.30
2019-06-10T12:02:13.470Z,6.70
2019-06-10T12:04:43.176Z,10.78
2019-06-10T12:07:13.040Z,5.62
2019-06-10T12:09:42.906Z,5.53
2019-06-10T12:12:13.601Z,8.73
2019-06-10T12:14:43.482Z,12.03
2019-06-10T12:17:24.663Z,7.35
2019-06-10T12:19:44.743Z,7.55
2019-06-10T12:22:14.682Z,6.20
2019-06-10T12:24:44.554Z,9.15
2019-06-10T12:27:14.353Z,7.55
2019-06-10T12:29:45.420Z,8.20
2019-06-10T12:32:15.512Z,8.13
2019-06-10T12:34:46.431Z,5.58
2019-06-10T12:37:16.514Z,13.88
2019-06-10T12:39:46.337Z,10.40
2019-06-10T12:42:17.444Z,6.45
2019-06-10T12:44:47.252Z,7.87
2019-06-10T12:47:17.112Z,5.70
2019-06-10T12:49:47.282Z,7.12
2019-06-10T12:52:16.915Z,9.68
2019-06-10T12:54:46.855Z,9.93
2019-06-10T12:57:16.630Z,6.78
2019-06-10T12:59:46.344Z,6.00
2019-06-10T13:02:23.355Z,6.15
2019-06-10T13:04:49.348Z,7.35
2019-06-10T13:07:19.382Z,5.85
2019-06-10T13:09:49.233Z,9.18
2019-06-10T13:12:19.002Z,5.10
2019-06-10T13:14:48.962Z,11.05
2019-06-10T13:17:18.733Z,10.55
2019-06-10T13:19:48.554Z,7.87
2019-06-10T13:22:19.737Z,9.45
2019-06-10T13:24:49.614Z,18.50
2019-06-10T13:27:19.547Z,12.68
2019-06-10T13:29:49.522Z,8.75
2019-06-10T13:32:19.382Z,8.88
2019-06-10T13:34:49.297Z,8.48
2019-06-10T13:37:19.144Z,11.38
2019-06-10T13:39:49.012Z,8.83
2019-06-10T13:42:18.965Z,6.75
2019-06-10T13:44:48.744Z,6.53
2019-06-10T13:47:24.886Z,5.72
2019-06-10T13:49:53.258Z,6.50
2019-06-10T13:52:23.454Z,6.83
2019-06-10T13:54:53.178Z,5.75
2019-06-10T13:57:23.117Z,7.12
2019-06-10T13:59:52.975Z,7.17
2019-06-10T14:02:24.848Z,6.90
2019-06-10T14:04:54.264Z,7.67
2019-06-10T14:07:24.052Z,7.00
2019-06-10T14:09:53.856Z,14.20
2019-06-10T14:12:23.827Z,6.35
2019-06-10T14:14:53.920Z,8.28
2019-06-10T14:17:24.750Z,10.35
2019-06-10T14:19:54.588Z,7.78
2019-06-10T14:22:24.456Z,7.53
2019-06-10T14:24:54.195Z,5.40
2019-06-10T14:27:24.618Z,7.60
2019-06-10T14:29:55.358Z,7.70
2019-06-10T14:32:25.145Z,5.08
2019-06-10T14:34:54.907Z,4.87
2019-06-10T14:37:35.733Z,9.15
2019-06-10T14:39:56.342Z,9.60
2019-06-10T14:42:26.192Z,8.53
2019-06-10T14:44:56.081Z,8.83
2019-06-10T14:47:25.929Z,5.33
2019-06-10T14:49:55.710Z,4.10
2019-06-10T14:52:25.524Z,6.03
2019-06-10T14:54:57.627Z,6.60
2019-06-10T14:57:27.115Z,7.97
2019-06-10T14:59:57.020Z,8.90
2019-06-10T15:02:26.771Z,5.25
2019-06-10T15:04:56.738Z,6.50
2019-06-10T15:07:26.670Z,8.43
2019-06-10T15:09:56.640Z,5.80
2019-06-10T15:12:26.388Z,7.83
2019-06-10T15:14:56.308Z,5.33
2019-06-10T15:17:27.437Z,6.62
2019-06-10T15:19:57.380Z,5.55
2019-06-10T15:22:28.732Z,7.30
2019-06-10T15:24:58.530Z,5.47
2019-06-10T15:27:33.211Z,6.33
2019-06-10T15:30:00.312Z,8.15
2019-06-10T15:32:34.540Z,8.10
2019-06-10T15:35:03.317Z,5.62
2019-06-10T15:37:34.568Z,11.08
2019-06-10T15:40:05.212Z,7.80
2019-06-10T15:42:36.397Z,7.10
2019-06-10T15:45:06.573Z,7.62
2019-06-10T15:47:36.480Z,10.25
2019-06-10T15:50:07.962Z,11.00
2019-06-10T15:52:37.979Z,9.70
2019-06-10T15:55:08.277Z,8.70
2019-06-10T15:57:43.214Z,6.33
2019-06-10T16:00:17.657Z,7.05
2019-06-10T16:02:44.121Z,11.15
2019-06-10T16:05:15.810Z,5.97
2019-06-10T16:07:45.362Z,7.15
2019-06-10T16:10:18.963Z,9.43
2019-06-10T16:12:46.828Z,6.35
2019-06-10T16:15:18.154Z,7.87
2019-06-10T16:17:48.454Z,7.40
2019-06-10T16:20:19.430Z,9.53
2019-06-10T16:22:49.291Z,11.22
2019-06-10T16:25:20.008Z,6.00
2019-06-10T16:27:51.756Z,6.08
2019-06-10T16:30:23.241Z,8.83
2019-06-10T16:32:53.211Z,8.23
2019-06-10T16:35:23.945Z,8.10
2019-06-10T16:37:56.713Z,7.33
2019-06-10T16:40:27.243Z,8.38
2019-06-10T16:42:57.406Z,10.37
2019-06-10T16:45:30.662Z,7.90
2019-06-10T16:47:58.819Z,9.10
2019-06-10T16:50:29.853Z,7.90
2019-06-10T16:53:03.034Z,9.07
2019-06-10T16:55:33.244Z,9.53
2019-06-10T16:58:03.289Z,15.13
2019-06-10T17:00:34.894Z,11.23
2019-06-10T17:03:05.460Z,10.50
2019-06-10T17:05:35.360Z,10.30
2019-06-10T17:08:05.114Z,11.10
2019-06-10T17:10:34.894Z,12.43
2019-06-10T17:13:06.861Z,13.07
2019-06-10T17:15:36.698Z,9.93
2019-06-10T17:18:06.898Z,14.07
2019-06-10T17:20:36.745Z,10.13
2019-06-10T17:23:26.545Z,12.70
2019-06-10T17:25:55.549Z,10.40
2019-06-10T17:28:29.804Z,11.33
2019-06-10T17:30:58.814Z,14.63
2019-06-10T17:33:30.380Z,13.33
2019-06-10T17:36:00.269Z,12.53
2019-06-10T17:38:31.278Z,13.13
2019-06-10T17:41:02.906Z,15.23
2019-06-10T17:43:34.308Z,13.97
2019-06-10T17:46:04.484Z,16.90
2019-06-10T17:48:34.164Z,11.37
2019-06-10T17:51:04.116Z,12.47
2019-06-10T17:53:35.052Z,14.30
2019-06-10T17:56:05.028Z,14.50
2019-06-10T17:58:50.013Z,12.70
2019-06-10T18:01:06.545Z,11.50
2019-06-10T18:03:39.775Z,13.23
2019-06-10T18:06:08.115Z,15.07
2019-06-10T18:08:40.693Z,14.60
2019-06-10T18:11:09.259Z,14.33
2019-06-10T18:13:39.072Z,12.43
2019-06-10T18:16:09.024Z,12.50
2019-06-10T18:18:38.847Z,15.43
2019-06-10T18:21:08.603Z,15.67
2019-06-10T18:23:38.433Z,11.67
2019-06-10T18:26:08.171Z,13.00
2019-06-10T18:28:59.837Z,12.80
2019-06-10T18:31:09.691Z,15.60
2019-06-10T18:33:39.551Z,12.33
2019-06-10T18:36:09.342Z,13.87
2019-06-10T18:38:39.760Z,17.83
2019-06-10T18:41:09.674Z,15.90
2019-06-10T18:43:40.021Z,14.63
2019-06-10T18:46:12.524Z,13.97
2019-06-10T18:48:43.082Z,16.13
2019-06-10T18:51:12.987Z,19.60
2019-06-10T18:53:43.057Z,22.93
2019-06-10T18:56:13.088Z,21.53
2019-06-10T18:58:44.229Z,20.67
2019-06-10T19:01:14.152Z,24.90
2019-06-10T19:03:45.112Z,21.27
2019-06-10T19:06:14.904Z,20.67
2019-06-10T19:08:44.708Z,22.70
2019-06-10T19:11:14.535Z,24.70
2019-06-10T19:13:44.265Z,20.73
2019-06-10T19:16:15.303Z,20.90
2019-06-10T19:18:45.132Z,22.50
2019-06-10T19:21:15.363Z,22.57
2019-06-10T19:23:45.139Z,22.83
2019-06-10T19:26:14.986Z,24.70
2019-06-10T19:28:45.417Z,21.83
2019-06-10T19:31:15.200Z,25.03
2019-06-10T19:33:45.586Z,22.13
2019-06-10T19:36:15.371Z,22.90
2019-06-10T19:38:45.066Z,23.33
2019-06-10T19:41:14.918Z,22.67
2019-06-10T19:43:45.481Z,27.63
2019-06-10T19:46:15.318Z,22.77
2019-06-10T19:48:56.592Z,25.63
2019-06-10T19:51:18.044Z,28.03
2019-06-10T19:53:47.814Z,27.90
2019-06-10T19:56:17.856Z,29.83
2019-06-10T19:58:47.817Z,33.20
2019-06-10T20:01:17.682Z,29.80
2019-06-10T20:03:47.498Z,30.33
2019-06-10T20:06:17.261Z,33.90
2019-06-10T20:08:46.997Z,30.07
2019-06-10T20:11:16.836Z,29.93
2019-06-10T20:13:46.931Z,31.50
2019-06-10T20:16:16.788Z,29.73
2019-06-10T20:18:48.229Z,28.37
2019-06-10T20:21:18.345Z,28.93
2019-06-10T20:23:48.299Z,26.77
2019-06-10T20:26:18.086Z,29.23
2019-06-10T20:28:52.181Z,27.83
2019-06-10T20:31:19.277Z,30.17
2019-06-10T20:33:48.961Z,31.40
2019-06-10T20:36:23.326Z,31.87
2019-06-10T20:38:53.521Z,30.40
2019-06-10T20:41:23.144Z,31.00
2019-06-10T20:43:55.542Z,33.33
2019-06-10T20:46:24.521Z,30.97
2019-06-10T20:48:54.712Z,30.83
2019-06-10T20:51:27.094Z,29.27
2019-06-10T20:53:56.041Z,25.67
2019-06-10T20:56:25.889Z,22.40
2019-06-10T20:58:55.814Z,23.13
2019-06-10T21:01:25.857Z,13.67
2019-06-10T21:03:55.518Z,13.47
2019-06-10T21:06:26.547Z,13.07
2019-06-10T21:08:57.865Z,14.83
2019-06-10T21:11:27.535Z,13.20
2019-06-10T21:13:57.332Z,9.33
2019-06-10T21:16:27.103Z,8.27
2019-06-10T21:18:57.078Z,11.30
2019-06-10T21:21:27.007Z,10.37
2019-06-10T21:23:56.959Z,7.27
2019-06-10T21:26:26.715Z,8.43
2019-06-10T21:28:56.422Z,10.83
2019-06-10T21:31:29.426Z,9.10
2019-06-10T21:33:58.018Z,8.13
2019-06-10T21:36:27.806Z,9.87
2019-06-10T21:38:58.912Z,9.43
2019-06-10T21:41:28.830Z,10.77
2019-06-10T21:43:59.647Z,7.17
2019-06-10T21:46:29.635Z,11.70
2019-06-10T21:48:59.487Z,6.73
2019-06-10T21:51:31.677Z,7.50
2019-06-10T21:54:02.995Z,6.77
2019-06-10T21:56:32.938Z,5.43
2019-06-10T21:59:02.686Z,6.70
2019-06-10T22:01:32.873Z,11.37
2019-06-10T22:04:04.552Z,7.17
2019-06-10T22:06:34.537Z,6.00
2019-06-10T22:09:05.727Z,9.50
2019-06-10T22:11:35.590Z,10.70
2019-06-10T22:14:05.593Z,9.50
2019-06-10T22:16:35.481Z,7.53
2019-06-10T22:19:05.546Z,9.50
2019-06-10T22:21:35.568Z,10.70
2019-06-10T22:24:05.627Z,6.73
2019-06-10T22:26:35.496Z,7.80
2019-06-10T22:29:05.420Z,8.33
2019-06-10T22:31:36.682Z,8.23
2019-06-10T22:34:06.582Z,7.83
2019-06-10T22:36:36.606Z,10.23
2019-06-10T22:39:06.893Z,10.33
2019-06-10T22:41:37.052Z,6.87
2019-06-10T22:44:06.812Z,9.53
2019-06-10T22:46:37.136Z,9.20
2019-06-10T22:49:06.897Z,7.30
2019-06-10T22:51:36.816Z,10.23
2019-06-10T22:54:06.829Z,8.37
2019-06-10T22:56:36.692Z,9.10
2019-06-10T22:59:06.657Z,7.00
2019-06-10T23:01:38.327Z,9.97
2019-06-10T23:04:08.553Z,6.80
2019-06-10T23:06:38.586Z,7.60
2019-06-10T23:09:08.777Z,6.50
2019-06-10T23:11:38.925Z,6.57
2019-06-10T23:14:08.834Z,6.23
2019-06-10T23:16:38.798Z,5.77
2019-06-10T23:19:08.683Z,14.33
2019-06-10T23:21:38.765Z,25.00
2019-06-10T23:24:08.693Z,29.87
2019-06-10T23:26:38.713Z,22.93
2019-06-10T23:29:08.676Z,25.80
2019-06-10T23:31:49.542Z,30.40
2019-06-10T23:34:11.682Z,22.13
2019-06-10T23:36:43.223Z,23.93
2019-06-10T23:39:13.309Z,30.00
2019-06-10T23:41:43.491Z,34.53
2019-06-10T23:44:13.154Z,30.50
2019-06-10T23:46:43.954Z,20.87
2019-06-10T23:49:13.887Z,11.80
2019-06-10T23:51:43.894Z,7.83
2019-06-10T23:54:13.785Z,8.63
2019-06-10T23:56:43.533Z,7.57
2019-06-10T23:59:13.246Z,6.23
